createdAt,value
2018-11-23T00:00:51.469Z,954.61
2018-11-23T00:02:03.456Z,954.60
2018-11-23T00:02:47.315Z,954.58
2018-11-23T00:21:28.537Z,954.72
2018-11-23T00:22:43.689Z,954.65
2018-11-23T00:25:25.464Z,954.67
2018-11-23T00:26:22.791Z,954.68
2018-11-23T00:27:20.427Z,954.61
2018-11-23T00:28:21.222Z,954.62
2018-11-23T00:29:20.943Z,954.62
2018-11-23T00:30:22.791Z,954.62
2018-11-23T00:31:21.235Z,954.59
2018-11-23T00:32:22.756Z,954.60
2018-11-23T00:33:21.155Z,954.59
2018-11-23T00:34:21.197Z,954.57
2018-11-23T00:35:20.314Z,954.58
2018-11-23T00:36:20.211Z,954.61
2018-11-23T00:37:20.155Z,954.60
2018-11-23T00:38:20.127Z,954.62
2018-11-23T00:39:21.214Z,954.63
2018-11-23T00:40:21.285Z,954.63
2018-11-23T00:41:20.409Z,954.64
2018-11-23T00:42:20.092Z,954.59
2018-11-23T00:43:20.071Z,954.62
2018-11-23T00:44:21.114Z,954.66
2018-11-23T00:45:21.063Z,954.64
2018-11-23T00:46:20.856Z,954.67
2018-11-23T00:47:35.880Z,954.67
2018-11-23T00:48:21.747Z,954.67
2018-11-23T00:49:20.052Z,954.70
2018-11-23T00:50:20.813Z,954.72
2018-11-23T00:51:21.113Z,954.74
2018-11-23T00:52:21.033Z,954.76
2018-11-23T00:53:21.053Z,954.74
2018-11-23T00:54:20.058Z,954.74
2018-11-23T00:55:20.900Z,954.75
2018-11-23T00:56:21.170Z,954.73
2018-11-23T00:57:21.430Z,954.77
2018-11-23T00:58:21.911Z,954.74
2018-11-23T00:59:22.916Z,954.71
2018-11-23T01:00:19.988Z,954.69
2018-11-23T01:01:20.894Z,954.69
2018-11-23T01:02:44.284Z,954.68
2018-11-23T01:03:21.113Z,954.72
2018-11-23T01:04:20.889Z,954.66
2018-11-23T01:06:33.365Z,954.67
2018-11-23T01:07:33.105Z,954.69
2018-11-23T01:08:33.575Z,954.70
2018-11-23T01:09:33.624Z,954.69
2018-11-23T01:10:33.566Z,954.72
2018-11-23T01:11:32.690Z,954.72
2018-11-23T01:12:34.325Z,954.64
2018-11-23T01:13:32.490Z,954.70
2018-11-23T01:14:32.618Z,954.71
2018-11-23T01:15:46.269Z,954.73
2018-11-23T01:16:32.538Z,954.66
2018-11-23T01:17:43.419Z,954.72
2018-11-23T01:18:32.583Z,954.64
2018-11-23T01:19:32.384Z,954.66
2018-11-23T01:20:33.408Z,954.67
2018-11-23T01:21:34.268Z,954.65
2018-11-23T01:22:44.955Z,954.62
2018-11-23T01:23:33.397Z,954.64
2018-11-23T01:24:45.962Z,954.62
2018-11-23T01:25:37.289Z,954.64
2018-11-23T01:26:33.528Z,954.61
2018-11-23T01:27:32.361Z,954.59
2018-11-23T01:28:32.289Z,954.63
2018-11-23T01:29:32.402Z,954.62
2018-11-23T01:30:33.382Z,954.54
2018-11-23T01:31:33.287Z,954.57
2018-11-23T01:32:32.341Z,954.55
2018-11-23T01:33:36.910Z,954.61
2018-11-23T01:34:32.912Z,954.62
2018-11-23T01:41:09.611Z,954.66
2018-11-23T01:42:10.000Z,954.69
2018-11-23T01:43:11.066Z,954.74
2018-11-23T01:44:10.681Z,954.74
2018-11-23T01:45:09.204Z,954.74
2018-11-23T01:46:09.692Z,954.69
2018-11-23T01:47:08.657Z,954.69
2018-11-23T01:48:08.612Z,954.64
2018-11-23T01:49:09.677Z,954.68
2018-11-23T01:50:09.645Z,954.63
2018-11-23T01:51:08.585Z,954.62
2018-11-23T01:52:11.141Z,954.68
2018-11-23T01:53:08.589Z,954.59
2018-11-23T01:54:08.517Z,954.66
2018-11-23T01:55:08.621Z,954.60
2018-11-23T01:56:10.102Z,954.67
2018-11-23T01:57:10.103Z,954.63
2018-11-23T01:58:10.187Z,954.65
2018-11-23T01:59:11.196Z,954.63
2018-11-23T02:00:11.185Z,954.60
2018-11-23T02:01:09.496Z,954.61
2018-11-23T02:02:09.552Z,954.61
2018-11-23T02:03:30.528Z,954.62
2018-11-23T02:04:09.467Z,954.59
2018-11-23T02:05:29.562Z,954.59
2018-11-23T02:06:10.095Z,954.54
2018-11-23T02:07:09.542Z,954.59
2018-11-23T02:08:10.713Z,954.60
2018-11-23T02:09:12.311Z,954.59
2018-11-23T02:10:08.462Z,954.57
2018-11-23T02:11:38.006Z,954.57
2018-11-23T02:12:24.153Z,954.58
2018-11-23T02:13:12.386Z,954.56
2018-11-23T02:14:11.272Z,954.55
2018-11-23T02:15:09.395Z,954.59
2018-11-23T02:16:23.335Z,954.53
2018-11-23T02:17:10.770Z,954.54
2018-11-23T02:18:09.312Z,954.58
2018-11-23T02:19:09.751Z,954.62
2018-11-23T02:23:12.672Z,954.54
2018-11-23T02:24:12.775Z,954.57
2018-11-23T02:30:15.216Z,954.52
2018-11-23T02:45:14.572Z,954.52
2018-11-23T02:46:16.525Z,954.53
2018-11-23T02:47:17.876Z,954.54
2018-11-23T02:48:16.341Z,954.51
2018-11-23T02:51:17.826Z,954.54
2018-11-23T02:52:19.035Z,954.52
2018-11-23T02:53:28.950Z,954.51
2018-11-23T02:54:18.120Z,954.46
2018-11-23T02:55:21.062Z,954.45
2018-11-23T02:56:16.986Z,954.48
2018-11-23T02:57:18.915Z,954.46
2018-11-23T02:58:19.249Z,954.51
2018-11-23T02:59:23.949Z,954.49
2018-11-23T03:00:17.799Z,954.46
2018-11-23T03:01:16.902Z,954.45
2018-11-23T03:02:16.861Z,954.46
2018-11-23T03:03:19.824Z,954.48
2018-11-23T03:04:16.860Z,954.44
2018-11-23T03:05:19.835Z,954.47
2018-11-23T03:06:18.345Z,954.49
2018-11-23T03:07:17.811Z,954.45
2018-11-23T03:08:16.900Z,954.45
2018-11-23T03:09:17.845Z,954.45
2018-11-23T03:10:16.831Z,954.43
2018-11-23T03:11:17.834Z,954.43
2018-11-23T03:12:17.801Z,954.40
2018-11-23T03:13:17.822Z,954.40
2018-11-23T03:14:18.291Z,954.41
2018-11-23T03:15:16.740Z,954.40
2018-11-23T03:16:17.314Z,954.39
2018-11-23T03:17:18.294Z,954.38
2018-11-23T03:18:19.360Z,954.40
2018-11-23T03:19:28.334Z,954.42
2018-11-23T03:20:39.294Z,954.40
2018-11-23T03:21:16.680Z,954.44
2018-11-23T03:22:16.644Z,954.49
2018-11-23T03:23:17.652Z,954.42
2018-11-23T03:24:16.578Z,954.48
2018-11-23T03:25:16.776Z,954.46
2018-11-23T03:26:16.667Z,954.44
2018-11-23T03:27:16.670Z,954.48
2018-11-23T03:28:18.372Z,954.46
2018-11-23T03:29:27.472Z,954.46
2018-11-23T03:30:18.478Z,954.48
2018-11-23T03:31:16.486Z,954.46
2018-11-23T03:32:16.453Z,954.44
2018-11-23T03:33:17.526Z,954.42
2018-11-23T03:34:19.394Z,954.40
2018-11-23T03:35:16.534Z,954.39
2018-11-23T03:36:16.887Z,954.38
2018-11-23T03:37:19.339Z,954.37
2018-11-23T03:38:16.383Z,954.37
2018-11-23T03:39:17.329Z,954.38
2018-11-23T03:40:17.310Z,954.42
2018-11-23T03:41:19.245Z,954.41
2018-11-23T03:42:16.826Z,954.45
2018-11-23T03:43:16.384Z,954.46
2018-11-23T03:44:17.319Z,954.42
2018-11-23T03:45:16.442Z,954.49
2018-11-23T03:46:16.356Z,954.49
2018-11-23T03:47:16.350Z,954.50
2018-11-23T03:48:16.865Z,954.50
2018-11-23T03:49:17.337Z,954.49
2018-11-23T03:51:30.342Z,954.42
2018-11-23T03:52:31.244Z,954.43
2018-11-23T03:53:30.165Z,954.43
2018-11-23T03:54:31.198Z,954.42
2018-11-23T03:55:31.094Z,954.37
2018-11-23T03:56:30.160Z,954.38
2018-11-23T03:57:30.073Z,954.37
2018-11-23T03:58:30.779Z,954.30
2018-11-23T03:59:31.229Z,954.32
2018-11-23T04:00:31.375Z,954.30
2018-11-23T04:01:32.807Z,954.28
2018-11-23T04:02:30.053Z,954.30
2018-11-23T04:03:31.133Z,954.22
2018-11-23T04:04:30.062Z,954.22
2018-11-23T04:05:31.056Z,954.23
2018-11-23T04:06:30.001Z,954.17
2018-11-23T04:07:29.978Z,954.22
2018-11-23T04:08:31.009Z,954.23
2018-11-23T04:09:30.775Z,954.24
2018-11-23T04:10:30.016Z,954.21
2018-11-23T04:11:30.035Z,954.24
2018-11-23T04:12:30.980Z,954.28
2018-11-23T04:13:29.903Z,954.30
2018-11-23T04:14:36.836Z,954.31
2018-11-23T04:15:31.246Z,954.27
2018-11-23T04:16:32.895Z,954.34
2018-11-23T04:17:30.860Z,954.29
2018-11-23T04:18:42.844Z,954.31
2018-11-23T04:19:30.070Z,954.27
2018-11-23T04:21:47.574Z,954.32
2018-11-23T04:22:47.550Z,954.28
2018-11-23T04:23:47.449Z,954.26
2018-11-23T04:24:48.419Z,954.26
2018-11-23T04:25:49.308Z,954.24
2018-11-23T04:26:47.280Z,954.24
2018-11-23T04:27:47.354Z,954.19
2018-11-23T04:28:48.327Z,954.17
2018-11-23T04:29:47.276Z,954.21
2018-11-23T04:30:47.243Z,954.17
2018-11-23T04:31:47.345Z,954.21
2018-11-23T04:32:47.829Z,954.24
2018-11-23T04:34:00.933Z,954.19
2018-11-23T04:34:51.563Z,954.20
2018-11-23T04:37:24.023Z,954.20
2018-11-23T04:38:24.222Z,954.25
2018-11-23T04:39:23.289Z,954.21
2018-11-23T04:40:24.119Z,954.23
2018-11-23T04:41:23.784Z,954.22
2018-11-23T04:42:30.784Z,954.23
2018-11-23T04:43:24.196Z,954.24
2018-11-23T04:44:25.642Z,954.28
2018-11-23T04:45:23.820Z,954.28
2018-11-23T04:46:22.772Z,954.28
2018-11-23T04:47:24.802Z,954.29
2018-11-23T04:48:24.781Z,954.33
2018-11-23T04:49:36.551Z,954.31
2018-11-23T05:00:37.601Z,954.47
2018-11-23T05:01:44.864Z,954.48
2018-11-23T05:02:38.394Z,954.47
2018-11-23T05:03:38.327Z,954.46
2018-11-23T05:04:38.936Z,954.42
2018-11-23T05:07:00.605Z,954.45
2018-11-23T05:08:12.154Z,954.44
2018-11-23T05:09:00.439Z,954.47
2018-11-23T05:09:59.329Z,954.49
2018-11-23T05:11:05.403Z,954.49
2018-11-23T05:23:07.959Z,954.52
2018-11-23T05:25:25.585Z,954.53
2018-11-23T05:33:29.086Z,954.57
2018-11-23T05:34:40.444Z,954.57
2018-11-23T05:37:48.979Z,954.49
2018-11-23T05:38:53.001Z,954.47
2018-11-23T05:39:51.673Z,954.54
2018-11-23T05:40:50.773Z,954.54
2018-11-23T05:41:49.163Z,954.53
2018-11-23T05:42:49.244Z,954.51
2018-11-23T05:43:48.165Z,954.57
2018-11-23T05:44:49.243Z,954.56
2018-11-23T05:45:49.282Z,954.54
2018-11-23T05:46:50.644Z,954.55
2018-11-23T05:47:47.991Z,954.52
2018-11-23T05:48:50.695Z,954.43
2018-11-23T05:49:50.616Z,954.42
2018-11-23T05:52:01.394Z,954.47
2018-11-23T05:54:17.231Z,954.38
2018-11-23T05:55:17.973Z,954.36
2018-11-23T05:56:17.889Z,954.38
2018-11-23T05:57:16.665Z,954.38
2018-11-23T05:58:16.646Z,954.30
2018-11-23T05:59:16.715Z,954.29
2018-11-23T06:00:17.674Z,954.26
2018-11-23T06:01:19.979Z,954.24
2018-11-23T06:02:17.746Z,954.28
2018-11-23T06:03:17.403Z,954.31
2018-11-23T06:04:17.606Z,954.33
2018-11-23T06:06:31.951Z,954.33
2018-11-23T06:07:34.736Z,954.36
2018-11-23T06:08:32.775Z,954.39
2018-11-23T06:09:31.721Z,954.33
2018-11-23T06:10:31.697Z,954.32
2018-11-23T06:11:34.186Z,954.34
2018-11-23T06:12:32.510Z,954.36
2018-11-23T06:13:33.532Z,954.33
2018-11-23T06:14:31.656Z,954.35
2018-11-23T06:15:33.526Z,954.34
2018-11-23T06:16:34.507Z,954.38
2018-11-23T06:17:31.837Z,954.34
2018-11-23T06:18:31.689Z,954.36
2018-11-23T06:19:32.502Z,954.34
2018-11-23T06:21:47.258Z,954.35
2018-11-23T06:22:47.314Z,954.34
2018-11-23T06:23:48.019Z,954.35
2018-11-23T06:24:47.029Z,954.34
2018-11-23T06:25:46.978Z,954.35
2018-11-23T06:26:46.961Z,954.33
2018-11-23T06:27:48.320Z,954.34
2018-11-23T06:28:46.989Z,954.33
2018-11-23T06:29:46.992Z,954.35
2018-11-23T06:30:46.988Z,954.34
2018-11-23T06:31:46.913Z,954.35
2018-11-23T06:32:47.979Z,954.29
2018-11-23T06:33:46.975Z,954.32
2018-11-23T06:34:52.554Z,954.37
2018-11-23T06:35:49.665Z,954.33
2018-11-23T06:36:48.670Z,954.38
2018-11-23T06:37:47.596Z,954.34
2018-11-23T06:40:05.685Z,954.36
2018-11-23T06:41:10.208Z,954.33
2018-11-23T06:42:06.604Z,954.37
2018-11-23T06:43:06.254Z,954.39
2018-11-23T06:44:05.487Z,954.37
2018-11-23T06:45:05.512Z,954.42
2018-11-23T06:46:06.438Z,954.40
2018-11-23T06:47:05.489Z,954.41
2018-11-23T06:48:05.431Z,954.40
2018-11-23T06:49:06.408Z,954.42
2018-11-23T06:50:05.533Z,954.41
2018-11-23T06:51:05.533Z,954.46
2018-11-23T06:52:06.411Z,954.55
2018-11-23T06:53:05.363Z,954.56
2018-11-23T06:54:05.334Z,954.57
2018-11-23T06:55:05.322Z,954.55
2018-11-23T06:56:05.319Z,954.54
2018-11-23T06:57:05.393Z,954.53
2018-11-23T06:59:17.920Z,954.53
2018-11-23T07:00:17.903Z,954.56
2018-11-23T07:01:17.880Z,954.52
2018-11-23T07:02:18.183Z,954.53
2018-11-23T07:03:18.781Z,954.52
2018-11-23T07:04:17.649Z,954.56
2018-11-23T07:05:20.262Z,954.60
2018-11-23T07:06:17.668Z,954.55
2018-11-23T07:07:17.638Z,954.56
2018-11-23T07:08:18.653Z,954.54
2018-11-23T07:10:37.366Z,954.50
2018-11-23T07:11:37.195Z,954.48
2018-11-23T07:12:37.245Z,954.49
2018-11-23T07:13:37.056Z,954.51
2018-11-23T07:14:36.955Z,954.53
2018-11-23T07:15:37.959Z,954.48
2018-11-23T07:16:48.842Z,954.47
2018-11-23T07:17:37.235Z,954.50
2018-11-23T07:18:37.683Z,954.47
2018-11-23T07:19:37.022Z,954.44
2018-11-23T07:21:49.301Z,954.46
2018-11-23T07:22:49.179Z,954.44
2018-11-23T07:23:48.938Z,954.43
2018-11-23T07:24:49.267Z,954.43
2018-11-23T07:25:50.387Z,954.47
2018-11-23T07:26:48.812Z,954.45
2018-11-23T07:27:49.353Z,954.45
2018-11-23T07:28:48.789Z,954.39
2018-11-23T07:29:48.809Z,954.42
2018-11-23T07:30:48.856Z,954.44
2018-11-23T07:31:57.519Z,954.40
2018-11-23T07:32:48.945Z,954.41
2018-11-23T07:33:48.892Z,954.45
2018-11-23T07:34:49.038Z,954.41
2018-11-23T07:36:09.831Z,954.36
2018-11-23T07:36:48.718Z,954.34
2018-11-23T07:37:48.825Z,954.28
2018-11-23T07:38:48.687Z,954.27
2018-11-23T07:39:48.715Z,954.27
2018-11-23T07:40:48.724Z,954.36
2018-11-23T07:41:49.427Z,954.30
2018-11-23T07:42:48.640Z,954.30
2018-11-23T07:43:48.637Z,954.28
2018-11-23T07:44:49.391Z,954.28
2018-11-23T07:45:48.640Z,954.26
2018-11-23T07:46:48.612Z,954.27
2018-11-23T07:47:48.609Z,954.34
2018-11-23T07:48:49.306Z,954.35
2018-11-23T07:49:49.405Z,954.39
2018-11-23T07:50:48.603Z,954.39
2018-11-23T07:51:48.595Z,954.41
2018-11-23T07:52:48.524Z,954.42
2018-11-23T07:53:48.578Z,954.42
2018-11-23T07:54:48.560Z,954.44
2018-11-23T07:55:49.407Z,954.44
2018-11-23T07:56:48.479Z,954.42
2018-11-23T07:57:48.531Z,954.46
2018-11-23T07:58:49.475Z,954.46
2018-11-23T07:59:48.451Z,954.41
2018-11-23T08:00:48.441Z,954.48
2018-11-23T08:01:48.475Z,954.48
2018-11-23T08:02:48.463Z,954.45
2018-11-23T08:03:49.451Z,954.44
2018-11-23T08:04:48.397Z,954.42
2018-11-23T08:07:30.452Z,954.37
2018-11-23T08:08:00.370Z,954.42
2018-11-23T08:09:00.133Z,954.47
2018-11-23T08:10:00.060Z,954.50
2018-11-23T08:11:00.068Z,954.53
2018-11-23T08:12:00.051Z,954.52
2018-11-23T08:13:00.113Z,954.57
2018-11-23T08:14:00.044Z,954.55
2018-11-23T08:15:00.033Z,954.53
2018-11-23T08:15:59.996Z,954.55
2018-11-23T08:16:59.996Z,954.53
2018-11-23T08:18:00.141Z,954.53
2018-11-23T08:18:59.982Z,954.50
2018-11-23T08:20:00.975Z,954.48
2018-11-23T08:21:01.045Z,954.50
2018-11-23T08:21:59.911Z,954.48
2018-11-23T08:22:59.908Z,954.51
2018-11-23T08:23:59.884Z,954.43
2018-11-23T08:25:00.872Z,954.48
2018-11-23T08:25:59.902Z,954.47
2018-11-23T08:50:50.306Z,954.45
2018-11-23T08:51:49.926Z,954.51
2018-11-23T08:52:49.823Z,954.54
2018-11-23T08:53:49.920Z,954.51
2018-11-23T08:54:49.722Z,954.48
2018-11-23T08:55:49.642Z,954.48
2018-11-23T08:56:49.608Z,954.48
2018-11-23T08:57:49.596Z,954.47
2018-11-23T08:58:49.640Z,954.44
2018-11-23T08:59:50.175Z,954.44
2018-11-23T09:00:49.573Z,954.47
2018-11-23T09:01:49.568Z,954.40
2018-11-23T09:02:50.115Z,954.45
2018-11-23T09:03:49.524Z,954.42
2018-11-23T09:04:50.093Z,954.43
2018-11-23T09:05:49.507Z,954.42
2018-11-23T09:06:50.504Z,954.38
2018-11-23T09:07:49.495Z,954.37
2018-11-23T09:08:49.489Z,954.31
2018-11-23T09:09:50.101Z,954.29
2018-11-23T09:10:49.470Z,954.24
2018-11-23T09:11:50.100Z,954.28
2018-11-23T09:12:49.423Z,954.26
2018-11-23T09:13:49.484Z,954.29
2018-11-23T09:14:50.097Z,954.20
2018-11-23T09:15:50.426Z,954.24
2018-11-23T09:16:49.399Z,954.23
2018-11-23T09:17:51.092Z,954.22
2018-11-23T09:18:49.382Z,954.24
2018-11-23T09:19:49.385Z,954.25
2018-11-23T09:20:52.146Z,954.24
2018-11-23T09:21:49.325Z,954.23
2018-11-23T09:22:51.111Z,954.24
2018-11-23T09:23:49.350Z,954.23
2018-11-23T09:24:50.114Z,954.28
2018-11-23T09:25:50.033Z,954.29
2018-11-23T09:26:49.264Z,954.28
2018-11-23T09:27:49.375Z,954.31
2018-11-23T09:28:49.354Z,954.31
2018-11-23T09:29:49.255Z,954.31
2018-11-23T09:30:49.223Z,954.32
2018-11-23T09:31:49.201Z,954.32
2018-11-23T09:32:49.206Z,954.33
2018-11-23T09:33:50.035Z,954.25
2018-11-23T09:34:49.183Z,954.24
2018-11-23T09:35:50.035Z,954.21
2018-11-23T09:36:49.208Z,954.24
2018-11-23T09:37:50.136Z,954.30
2018-11-23T09:38:49.127Z,954.23
2018-11-23T09:39:50.110Z,954.17
2018-11-23T09:40:49.140Z,954.19
2018-11-23T09:41:49.093Z,954.26
2018-11-23T09:42:49.105Z,954.26
2018-11-23T09:43:49.067Z,954.26
2018-11-23T09:44:49.101Z,954.27
2018-11-23T09:45:49.080Z,954.26
2018-11-23T09:46:49.035Z,954.27
2018-11-23T09:47:49.044Z,954.25
2018-11-23T09:48:49.016Z,954.25
2018-11-23T09:49:49.037Z,954.22
2018-11-23T09:50:59.684Z,954.23
2018-11-23T09:51:49.032Z,954.23
2018-11-23T09:52:48.985Z,954.27
2018-11-23T09:53:48.968Z,954.32
2018-11-23T09:54:49.014Z,954.25
2018-11-23T09:55:48.945Z,954.26
2018-11-23T09:56:49.536Z,954.24
2018-11-23T09:57:48.914Z,954.29
2018-11-23T09:58:48.940Z,954.27
2018-11-23T09:59:49.589Z,954.25
2018-11-23T10:00:48.879Z,954.22
2018-11-23T10:01:48.917Z,954.26
2018-11-23T10:02:48.877Z,954.26
2018-11-23T10:03:48.866Z,954.31
2018-11-23T10:04:50.120Z,954.28
2018-11-23T10:05:48.830Z,954.26
2018-11-23T10:06:48.845Z,954.26
2018-11-23T10:07:48.822Z,954.22
2018-11-23T10:08:48.837Z,954.25
2018-11-23T10:09:49.592Z,954.24
2018-11-23T10:10:48.782Z,954.25
2018-11-23T10:11:48.747Z,954.22
2018-11-23T10:12:48.754Z,954.18
2018-11-23T10:13:48.774Z,954.16
2018-11-23T10:14:48.737Z,954.22
2018-11-23T10:15:48.713Z,954.14
2018-11-23T10:16:48.745Z,954.19
2018-11-23T10:17:48.689Z,954.20
2018-11-23T10:18:48.705Z,954.22
2018-11-23T10:19:48.679Z,954.20
2018-11-23T10:20:48.658Z,954.17
2018-11-23T10:21:48.645Z,954.16
2018-11-23T10:22:48.658Z,954.16
2018-11-23T10:23:48.680Z,954.18
2018-11-23T10:24:48.649Z,954.17
2018-11-23T10:25:49.576Z,954.19
2018-11-23T10:26:49.620Z,954.15
2018-11-23T10:27:48.557Z,954.14
2018-11-23T10:28:48.584Z,954.12
2018-11-23T10:29:51.851Z,954.13
2018-11-23T10:30:49.618Z,954.13
2018-11-23T10:31:48.556Z,954.11
2018-11-23T10:32:48.529Z,954.11
2018-11-23T10:33:49.513Z,954.10
2018-11-23T10:34:48.519Z,954.11
2018-11-23T10:36:20.147Z,954.06
2018-11-23T10:36:48.480Z,954.04
2018-11-23T10:37:48.504Z,953.99
2018-11-23T10:38:48.446Z,953.98
2018-11-23T10:39:57.144Z,953.98
2018-11-23T10:40:48.652Z,954.01
2018-11-23T10:41:59.926Z,953.97
2018-11-23T10:42:48.602Z,954.03
2018-11-23T10:43:48.506Z,954.07
2018-11-23T10:44:48.542Z,954.00
2018-11-23T10:46:00.475Z,954.00
2018-11-23T10:46:59.983Z,954.03
2018-11-23T10:47:48.517Z,954.04
2018-11-23T10:48:48.492Z,954.04
2018-11-23T10:49:48.399Z,954.02
2018-11-23T10:50:59.035Z,954.03
2018-11-23T10:51:48.462Z,954.02
2018-11-23T10:52:48.511Z,954.03
2018-11-23T10:53:48.495Z,954.02
2018-11-23T10:54:48.438Z,953.98
2018-11-23T10:55:48.284Z,953.99
2018-11-23T10:56:48.792Z,954.04
2018-11-23T10:58:00.534Z,953.99
2018-11-23T10:59:39.978Z,954.07
2018-11-23T11:01:53.450Z,954.10
2018-11-23T11:03:05.222Z,954.13
2018-11-23T11:03:53.408Z,954.06
2018-11-23T11:04:53.433Z,954.04
2018-11-23T11:06:03.989Z,954.03
2018-11-23T11:06:53.417Z,954.02
2018-11-23T11:07:53.235Z,954.01
2018-11-23T11:08:53.209Z,953.95
2018-11-23T11:10:05.054Z,953.94
2018-11-23T11:11:02.857Z,953.95
2018-11-23T11:12:03.601Z,953.94
2018-11-23T11:12:53.277Z,953.95
2018-11-23T11:13:53.380Z,953.93
2018-11-23T11:14:53.227Z,953.98
2018-11-23T11:16:01.842Z,953.96
2018-11-23T11:16:53.223Z,953.95
2018-11-23T11:17:53.197Z,953.89
2018-11-23T11:18:53.171Z,953.91
2018-11-23T11:19:53.303Z,953.89
2018-11-23T11:21:07.979Z,953.92
2018-11-23T11:21:53.063Z,953.91
2018-11-23T11:23:01.744Z,953.93
2018-11-23T11:23:53.155Z,953.89
2018-11-23T11:24:53.148Z,953.86
2018-11-23T11:26:04.769Z,953.87
2018-11-23T11:26:53.094Z,953.90
2018-11-23T11:28:01.778Z,953.82
2018-11-23T11:28:53.078Z,953.82
2018-11-23T11:29:53.214Z,953.80
2018-11-23T11:31:04.265Z,953.82
2018-11-23T11:31:53.126Z,953.75
2018-11-23T11:32:53.105Z,953.71
2018-11-23T11:34:03.978Z,953.67
2018-11-23T11:35:05.421Z,953.66
2018-11-23T11:35:53.066Z,953.68
2018-11-23T11:36:53.056Z,953.65
2018-11-23T11:37:52.963Z,953.68
2018-11-23T11:38:53.018Z,953.68
2018-11-23T11:39:52.896Z,953.69
2018-11-23T11:40:52.867Z,953.68
2018-11-23T11:41:53.676Z,953.68
2018-11-23T11:42:53.715Z,953.62
2018-11-23T11:43:52.798Z,953.67
2018-11-23T11:44:52.792Z,953.67
2018-11-23T11:45:52.827Z,953.63
2018-11-23T11:46:53.668Z,953.67
2018-11-23T11:47:52.747Z,953.66
2018-11-23T11:48:52.752Z,953.67
2018-11-23T11:49:59.049Z,953.65
2018-11-23T11:50:52.766Z,953.64
2018-11-23T11:51:52.716Z,953.59
2018-11-23T11:52:52.699Z,953.58
2018-11-23T11:53:52.700Z,953.58
2018-11-23T11:54:53.674Z,953.55
2018-11-23T11:55:52.683Z,953.55
2018-11-23T11:56:52.651Z,953.55
2018-11-23T11:57:52.661Z,953.56
2018-11-23T11:58:52.622Z,953.56
2018-11-23T11:59:52.647Z,953.56
2018-11-23T12:00:52.628Z,953.55
2018-11-23T12:01:52.591Z,953.52
2018-11-23T12:02:52.637Z,953.54
2018-11-23T12:03:52.572Z,953.56
2018-11-23T12:04:52.570Z,953.58
2018-11-23T12:06:10.754Z,953.52
2018-11-23T12:06:52.577Z,953.53
2018-11-23T12:07:52.534Z,953.52
2018-11-23T12:08:52.520Z,953.49
2018-11-23T12:09:52.543Z,953.44
2018-11-23T12:10:52.496Z,953.48
2018-11-23T12:11:52.513Z,953.46
2018-11-23T12:12:52.474Z,953.43
2018-11-23T12:13:52.460Z,953.45
2018-11-23T12:15:01.146Z,953.49
2018-11-23T12:15:52.511Z,953.45
2018-11-23T12:16:52.529Z,953.41
2018-11-23T12:17:52.488Z,953.39
2018-11-23T12:18:52.550Z,953.41
2018-11-23T12:19:52.431Z,953.44
2018-11-23T12:20:52.392Z,953.43
2018-11-23T12:21:52.389Z,953.46
2018-11-23T12:22:52.361Z,953.41
2018-11-23T12:23:52.355Z,953.43
2018-11-23T12:24:52.365Z,953.41
2018-11-23T12:25:52.340Z,953.41
2018-11-23T12:26:52.318Z,953.41
2018-11-23T12:27:53.209Z,953.36
2018-11-23T12:28:53.195Z,953.38
2018-11-23T12:29:52.278Z,953.30
2018-11-23T12:30:52.323Z,953.37
2018-11-23T12:31:52.258Z,953.31
2018-11-23T12:32:52.260Z,953.25
2018-11-23T12:33:52.233Z,953.27
2018-11-23T12:34:52.228Z,953.28
2018-11-23T12:35:52.238Z,953.25
2018-11-23T12:36:52.222Z,953.21
2018-11-23T12:37:52.190Z,953.24
2018-11-23T12:38:52.185Z,953.24
2018-11-23T12:39:52.172Z,953.21
2018-11-23T12:40:52.194Z,953.28
2018-11-23T12:41:52.170Z,953.25
2018-11-23T12:42:52.177Z,953.23
2018-11-23T12:43:52.123Z,953.18
2018-11-23T12:44:52.114Z,953.20
2018-11-23T12:45:52.113Z,953.22
2018-11-23T12:46:52.104Z,953.22
2018-11-23T12:47:52.082Z,953.24
2018-11-23T12:48:52.105Z,953.25
2018-11-23T12:49:52.092Z,953.24
2018-11-23T12:50:52.709Z,953.20
2018-11-23T12:51:52.043Z,953.22
2018-11-23T12:52:52.047Z,953.27
2018-11-23T12:53:52.020Z,953.21
2018-11-23T12:54:52.007Z,953.19
2018-11-23T12:55:52.241Z,953.18
2018-11-23T12:56:51.986Z,953.26
2018-11-23T12:57:51.977Z,953.27
2018-11-23T12:58:52.751Z,953.23
2018-11-23T12:59:51.950Z,953.24
2018-11-23T13:00:51.945Z,953.24
2018-11-23T13:01:51.920Z,953.17
2018-11-23T13:02:51.929Z,953.14
2018-11-23T13:03:51.907Z,953.24
2018-11-23T13:04:51.898Z,953.17
2018-11-23T13:05:51.907Z,953.15
2018-11-23T13:06:51.936Z,953.16
2018-11-23T13:07:51.885Z,953.17
2018-11-23T13:08:51.854Z,953.15
2018-11-23T13:09:51.896Z,953.14
2018-11-23T13:10:52.881Z,953.13
2018-11-23T13:11:51.812Z,953.21
2018-11-23T13:12:51.802Z,953.21
2018-11-23T13:13:51.788Z,953.20
2018-11-23T13:14:51.801Z,953.24
2018-11-23T13:15:51.789Z,953.20
2018-11-23T13:16:51.754Z,953.23
2018-11-23T13:17:51.749Z,953.18
2018-11-23T13:18:51.731Z,953.18
2018-11-23T13:19:51.729Z,953.21
2018-11-23T13:20:51.773Z,953.19
2018-11-23T13:21:51.714Z,953.21
2018-11-23T13:22:51.695Z,953.23
2018-11-23T13:23:51.680Z,953.24
2018-11-23T13:24:51.661Z,953.21
2018-11-23T13:25:51.675Z,953.17
2018-11-23T13:26:51.668Z,953.20
2018-11-23T13:27:51.633Z,953.22
2018-11-23T13:28:51.621Z,953.20
2018-11-23T13:29:51.613Z,953.19
2018-11-23T13:30:51.616Z,953.20
2018-11-23T13:31:51.597Z,953.16
2018-11-23T13:32:51.575Z,953.12
2018-11-23T13:33:51.592Z,953.11
2018-11-23T13:34:51.561Z,953.09
2018-11-23T13:35:51.720Z,953.15
2018-11-23T13:36:51.538Z,953.10
2018-11-23T13:37:51.541Z,953.13
2018-11-23T13:38:51.506Z,953.11
2018-11-23T13:39:51.528Z,953.11
2018-11-23T13:40:51.546Z,953.04
2018-11-23T13:41:51.484Z,953.07
2018-11-23T13:42:51.471Z,953.06
2018-11-23T13:43:51.470Z,953.07
2018-11-23T13:45:00.134Z,953.06
2018-11-23T13:47:05.188Z,953.05
2018-11-23T13:48:05.195Z,953.00
2018-11-23T13:49:05.128Z,952.97
2018-11-23T13:50:05.115Z,952.96
2018-11-23T13:51:05.062Z,953.01
2018-11-23T13:52:06.037Z,952.94
2018-11-23T13:53:05.026Z,952.88
2018-11-23T13:54:04.954Z,952.91
2018-11-23T13:55:04.972Z,952.93
2018-11-23T13:56:05.868Z,952.87
2018-11-23T13:57:04.921Z,952.87
2018-11-23T13:58:04.931Z,952.90
2018-11-23T13:59:04.900Z,952.85
2018-11-23T14:00:04.912Z,952.84
2018-11-23T14:01:04.890Z,952.84
2018-11-23T14:02:05.380Z,952.78
2018-11-23T14:03:04.880Z,952.79
2018-11-23T14:04:04.841Z,952.75
2018-11-23T14:05:04.826Z,952.76
2018-11-23T14:06:07.972Z,952.77
2018-11-23T14:07:04.822Z,952.76
2018-11-23T14:08:04.809Z,952.79
2018-11-23T14:09:04.786Z,952.76
2018-11-23T14:10:04.768Z,952.82
2018-11-23T14:11:04.783Z,952.80
2018-11-23T14:12:04.746Z,952.82
2018-11-23T14:13:10.985Z,952.78
2018-11-23T14:14:05.776Z,952.75
2018-11-23T14:15:04.726Z,952.77
2018-11-23T14:16:04.713Z,952.78
2018-11-23T14:17:04.683Z,952.79
2018-11-23T14:18:04.674Z,952.79
2018-11-23T14:19:04.663Z,952.80
2018-11-23T14:20:05.677Z,952.85
2018-11-23T14:21:04.939Z,952.80
2018-11-23T14:22:04.651Z,952.86
2018-11-23T14:23:04.622Z,952.89
2018-11-23T14:24:04.613Z,952.88
2018-11-23T14:25:04.599Z,952.93
2018-11-23T14:26:04.661Z,952.92
2018-11-23T14:27:04.591Z,952.97
2018-11-23T14:28:04.559Z,952.94
2018-11-23T14:29:04.555Z,952.95
2018-11-23T14:30:04.538Z,952.91
2018-11-23T14:31:04.547Z,952.90
2018-11-23T14:32:04.534Z,952.83
2018-11-23T14:33:04.549Z,952.84
2018-11-23T14:34:04.512Z,952.87
2018-11-23T14:35:04.491Z,952.86